createdAt,value
2022-10-11T00:00:10.068Z,101716.25
2022-10-11T00:02:36.426Z,101727.84
2022-10-11T00:05:02.816Z,101738.06
2022-10-11T00:07:29.232Z,101730.72
2022-10-11T00:09:55.675Z,101741.63
2022-10-11T00:12:22.015Z,101741.63
2022-10-11T00:14:48.405Z,101752.53
2022-10-11T00:17:14.864Z,101751.69
2022-10-11T00:19:41.268Z,101760.88
2022-10-11T00:22:07.658Z,101773.50
2022-10-11T00:24:34.110Z,101774.34
2022-10-11T00:27:00.564Z,101782.53
2022-10-11T00:29:26.923Z,101793.41
2022-10-11T00:31:53.402Z,101794.28
2022-10-11T00:34:20.999Z,101796.16
2022-10-11T00:36:47.410Z,101793.41
2022-10-11T00:39:14.533Z,101803.47
2022-10-11T00:41:41.234Z,101805.19
2022-10-11T00:44:13.607Z,101796.16
2022-10-11T00:46:40.908Z,101799.06
2022-10-11T00:49:15.680Z,101804.31
2022-10-11T00:51:51.229Z,101808.94
2022-10-11T00:54:20.407Z,101809.97
2022-10-11T00:56:49.302Z,101814.56
2022-10-11T00:59:18.968Z,101814.56
2022-10-11T01:01:45.480Z,101818.13
2022-10-11T01:04:11.966Z,101824.25
2022-10-11T01:06:38.653Z,101819.84
2022-10-11T01:09:05.191Z,101828.88
2022-10-11T01:11:32.456Z,101826.31
2022-10-11T01:13:58.752Z,101837.88
2022-10-11T01:16:31.183Z,101834.50
2022-10-11T01:19:35.864Z,101838.91
2022-10-11T01:22:11.351Z,101839.75
2022-10-11T01:24:43.957Z,101833.63
2022-10-11T01:27:13.303Z,101841.81
2022-10-11T01:29:39.697Z,101857.31
2022-10-11T01:32:13.484Z,101852.53
2022-10-11T01:35:00.160Z,101857.31
2022-10-11T01:37:37.566Z,101869.06
2022-10-11T01:40:12.679Z,101862.78
2022-10-11T01:42:40.132Z,101863.63
2022-10-11T01:45:10.750Z,101861.75
2022-10-11T01:47:39.051Z,101865.50
2022-10-11T01:50:05.888Z,101868.06
2022-10-11T01:52:33.918Z,101861.75
2022-10-11T01:55:15.608Z,101868.91
2022-10-11T01:58:02.128Z,101875.22
2022-10-11T02:00:34.871Z,101866.34
2022-10-11T02:03:16.085Z,101874.53
2022-10-11T02:05:45.171Z,101873.69
2022-10-11T02:08:14.567Z,101874.66
2022-10-11T02:10:44.810Z,101877.25
2022-10-11T02:13:14.312Z,101881.00
2022-10-11T02:15:41.435Z,101882.72
2022-10-11T02:18:15.566Z,101896.34
2022-10-11T02:20:42.692Z,101892.75
2022-10-11T02:23:12.527Z,101898.22
2022-10-11T02:25:39.047Z,101895.50
2022-10-11T02:28:09.342Z,101903.66
2022-10-11T02:30:36.168Z,101894.47
2022-10-11T02:33:04.873Z,101903.66
2022-10-11T02:35:33.742Z,101902.81
2022-10-11T02:38:07.264Z,101908.25
2022-10-11T02:40:35.151Z,101903.66
2022-10-11T02:43:04.178Z,101909.13
2022-10-11T02:45:34.612Z,101909.13
2022-10-11T02:48:01.180Z,101917.28
2022-10-11T02:50:27.844Z,101919.16
2022-10-11T02:52:54.196Z,101925.63
2022-10-11T02:55:20.748Z,101923.59
2022-10-11T02:57:47.341Z,101930.06
2022-10-11T03:00:14.045Z,101931.91
2022-10-11T03:02:40.439Z,101934.63
2022-10-11T03:05:07.284Z,101929.19
2022-10-11T03:07:33.810Z,101937.38
2022-10-11T03:10:00.191Z,101942.81
2022-10-11T03:12:26.543Z,101941.97
2022-10-11T03:14:53.073Z,101947.41
2022-10-11T03:17:35.547Z,101948.28
2022-10-11T03:20:03.000Z,101947.28
2022-10-11T03:22:29.356Z,101952.72
2022-10-11T03:24:59.656Z,101958.31
2022-10-11T03:27:29.038Z,101961.06
2022-10-11T03:29:55.747Z,101965.66
2022-10-11T03:32:22.073Z,101968.38
2022-10-11T03:34:48.415Z,101977.25
2022-10-11T03:37:14.774Z,101975.69
2022-10-11T03:39:41.297Z,101975.69
2022-10-11T03:42:07.662Z,101989.34
2022-10-11T03:44:34.091Z,101991.22
2022-10-11T03:47:00.428Z,101988.13
2022-10-11T03:49:26.938Z,101997.50
2022-10-11T03:51:53.260Z,102004.84
2022-10-11T03:54:19.624Z,102002.97
2022-10-11T03:56:46.027Z,102008.41
2022-10-11T03:59:12.448Z,101999.38
2022-10-11T04:01:39.082Z,102006.41
2022-10-11T04:04:05.828Z,102005.69
2022-10-11T04:06:32.191Z,102012.84
2022-10-11T04:08:58.564Z,102014.88
2022-10-11T04:11:24.955Z,102014.03
2022-10-11T04:13:51.891Z,102022.03
2022-10-11T04:16:18.290Z,102025.78
2022-10-11T04:18:44.687Z,102023.06
2022-10-11T04:21:11.069Z,102033.97
2022-10-11T04:23:37.424Z,102035.84
2022-10-11T04:26:05.080Z,102036.69
2022-10-11T04:28:31.661Z,102033.13
2022-10-11T04:30:58.087Z,102042.16
2022-10-11T04:33:24.420Z,102045.72
2022-10-11T04:35:54.894Z,102043.00
2022-10-11T04:38:21.571Z,102048.63
2022-10-11T04:40:47.950Z,102057.47
2022-10-11T04:43:16.647Z,102054.06
2022-10-11T04:45:43.304Z,102056.81
2022-10-11T04:48:09.828Z,102059.53
2022-10-11T04:50:36.778Z,102061.22
2022-10-11T04:53:03.182Z,102062.25
2022-10-11T04:55:29.604Z,102060.38
2022-10-11T04:57:56.019Z,102065.97
2022-10-11T05:00:22.431Z,102073.16
2022-10-11T05:02:48.804Z,102075.88
2022-10-11T05:05:17.587Z,102082.19
2022-10-11T05:07:44.321Z,102088.50
2022-10-11T05:10:10.771Z,102084.91
2022-10-11T05:12:37.134Z,102087.63
2022-10-11T05:15:03.867Z,102095.81
2022-10-11T05:17:30.339Z,102100.41
2022-10-11T05:19:56.735Z,102101.41
2022-10-11T05:22:23.290Z,102106.84
2022-10-11T05:24:49.688Z,102106.84
2022-10-11T05:27:16.153Z,102109.59
2022-10-11T05:29:42.570Z,102109.59
2022-10-11T05:32:09.066Z,102120.34
2022-10-11T05:34:35.434Z,102126.78
2022-10-11T05:37:01.802Z,102122.34
2022-10-11T05:39:28.188Z,102133.13
2022-10-11T05:41:54.594Z,102136.00
2022-10-11T05:44:20.973Z,102141.44
2022-10-11T05:46:47.486Z,102136.00
2022-10-11T05:49:13.866Z,102140.41
2022-10-11T05:51:40.265Z,102146.75
2022-10-11T05:54:06.771Z,102147.75
2022-10-11T05:56:33.113Z,102148.59
2022-10-11T05:59:02.389Z,102147.75
2022-10-11T06:01:29.188Z,102150.47
2022-10-11T06:03:56.000Z,102158.66
2022-10-11T06:06:22.523Z,102161.38
2022-10-11T06:08:49.264Z,102172.28
2022-10-11T06:11:17.363Z,102170.41
2022-10-11T06:13:44.322Z,102164.09
2022-10-11T06:16:11.089Z,102170.41
2022-10-11T06:18:37.437Z,102174.00
2022-10-11T06:21:03.919Z,102180.31
2022-10-11T06:23:30.303Z,102176.75
2022-10-11T06:26:00.629Z,102180.31
2022-10-11T06:28:28.546Z,102186.75
2022-10-11T06:30:55.774Z,102183.19
2022-10-11T06:33:22.980Z,102190.38
2022-10-11T06:35:49.451Z,102195.81
2022-10-11T06:38:16.077Z,102191.34
2022-10-11T06:40:42.545Z,102199.53
2022-10-11T06:43:08.875Z,102214.91
2022-10-11T06:45:35.239Z,102199.41
2022-10-11T06:48:02.082Z,102198.53
2022-10-11T06:50:54.521Z,102204.00
2022-10-11T06:53:14.938Z,102214.91
2022-10-11T06:55:41.267Z,102208.03
2022-10-11T06:58:07.726Z,102221.34
2022-10-11T07:00:34.071Z,102222.19
2022-10-11T07:03:00.687Z,102225.81
2022-10-11T07:05:29.316Z,102228.53
2022-10-11T07:07:55.654Z,102232.13
2022-10-11T07:10:22.080Z,102229.38
2022-10-11T07:12:48.451Z,102234.97
2022-10-11T07:15:14.862Z,102238.56
2022-10-11T07:17:42.160Z,102246.72
2022-10-11T07:20:08.831Z,102250.34
2022-10-11T07:22:35.614Z,102248.47
2022-10-11T07:25:02.043Z,102248.47
2022-10-11T07:27:28.475Z,102255.78
2022-10-11T07:29:54.817Z,102261.25
2022-10-11T07:32:21.298Z,102259.50
2022-10-11T07:34:47.670Z,102267.56
2022-10-11T07:37:14.110Z,102261.25
2022-10-11T07:39:40.812Z,102270.41
2022-10-11T07:42:08.253Z,102262.22
2022-10-11T07:44:35.074Z,102269.44
2022-10-11T07:47:01.450Z,102275.72
2022-10-11T07:49:27.863Z,102263.81
2022-10-11T07:51:54.286Z,102267.56
2022-10-11T07:54:20.638Z,102266.69
2022-10-11T07:56:46.976Z,102265.69
2022-10-11T07:59:13.404Z,102278.47
2022-10-11T08:01:39.819Z,102283.06
2022-10-11T08:04:06.507Z,102287.50
2022-10-11T08:06:33.106Z,102286.63
2022-10-11T08:09:00.587Z,102294.81
2022-10-11T08:11:36.690Z,102293.06
2022-10-11T08:14:08.390Z,102291.22
2022-10-11T08:16:35.794Z,102288.34
2022-10-11T08:19:03.220Z,102289.34
2022-10-11T08:21:29.700Z,102293.97
2022-10-11T08:23:56.615Z,102292.94
2022-10-11T08:26:23.313Z,102286.63
2022-10-11T08:28:49.767Z,102291.94
2022-10-11T08:31:16.690Z,102300.09
2022-10-11T08:33:43.436Z,102303.69
2022-10-11T08:36:10.590Z,102302.81
2022-10-11T08:38:37.982Z,102305.56
2022-10-11T08:41:14.523Z,102306.41
2022-10-11T08:43:40.836Z,102305.38
2022-10-11T08:46:08.935Z,102307.13
2022-10-11T08:48:37.083Z,102305.25
2022-10-11T08:51:11.441Z,102310.72
2022-10-11T08:53:43.263Z,102310.53
2022-10-11T08:56:12.188Z,102311.56
2022-10-11T08:58:57.444Z,102307.13
2022-10-11T09:01:26.104Z,102319.75
2022-10-11T09:03:52.898Z,102309.84
2022-10-11T09:06:37.519Z,102317.00
2022-10-11T09:09:12.699Z,102317.72
2022-10-11T09:11:57.682Z,102323.16
2022-10-11T09:14:35.651Z,102326.91
2022-10-11T09:17:11.292Z,102332.19
2022-10-11T09:19:40.896Z,102336.78
2022-10-11T09:22:36.693Z,102337.66
2022-10-11T09:25:21.232Z,102343.09
2022-10-11T09:28:08.526Z,102334.78
2022-10-11T09:30:37.204Z,102339.22
2022-10-11T09:33:10.918Z,102336.50
2022-10-11T09:35:39.890Z,102333.78
2022-10-11T09:38:06.216Z,102327.28
2022-10-11T09:40:38.992Z,102337.22
2022-10-11T09:43:05.793Z,102328.16
2022-10-11T09:45:32.165Z,102338.06
2022-10-11T09:47:59.720Z,102335.34
2022-10-11T09:50:28.447Z,102338.06
2022-10-11T09:52:56.447Z,102332.47
2022-10-11T09:55:33.181Z,102333.31
2022-10-11T09:57:59.692Z,102335.00
2022-10-11T10:00:32.327Z,102343.19
2022-10-11T10:02:59.478Z,102337.75
2022-10-11T10:05:27.371Z,102337.75
2022-10-11T10:08:20.354Z,102340.47
2022-10-11T10:10:54.708Z,102339.47
2022-10-11T10:13:45.985Z,102337.63
2022-10-11T10:16:24.576Z,102349.38
2022-10-11T10:18:53.051Z,102344.94
2022-10-11T10:21:25.492Z,102346.66
2022-10-11T10:23:54.720Z,102344.78
2022-10-11T10:26:25.960Z,102354.81
2022-10-11T10:28:55.155Z,102352.97
2022-10-11T10:31:23.021Z,102355.69
2022-10-11T10:33:51.491Z,102354.81
2022-10-11T10:36:21.840Z,102366.44
2022-10-11T10:38:52.443Z,102362.72
2022-10-11T10:41:19.198Z,102370.03
2022-10-11T10:43:51.780Z,102357.25
2022-10-11T10:46:18.194Z,102362.72
2022-10-11T10:52:09.496Z,102355.22
2022-10-11T10:54:45.249Z,102357.94
2022-10-11T10:57:11.570Z,102357.94
2022-10-11T10:59:46.031Z,102366.88
2022-10-11T11:02:40.236Z,102361.44
2022-10-11T11:05:10.404Z,102359.56
2022-10-11T11:07:42.744Z,102360.41
2022-10-11T11:10:18.524Z,102355.81
2022-10-11T11:12:56.591Z,102356.66
2022-10-11T11:15:38.300Z,102362.13
2022-10-11T11:18:31.294Z,102355.66
2022-10-11T11:20:57.619Z,102355.66
2022-10-11T11:23:44.257Z,102353.78
2022-10-11T11:26:18.277Z,102350.06
2022-10-11T11:28:47.928Z,102351.94
2022-10-11T11:31:17.371Z,102353.66
2022-10-11T11:33:49.935Z,102348.31
2022-10-11T11:36:21.031Z,102344.59
2022-10-11T11:39:04.507Z,102345.47
2022-10-11T11:41:36.062Z,102350.91
2022-10-11T11:44:06.834Z,102350.06
2022-10-11T11:46:36.993Z,102338.44
2022-10-11T11:49:10.790Z,102343.59
2022-10-11T11:51:41.446Z,102335.41
2022-10-11T11:54:28.139Z,102345.47
2022-10-11T11:56:58.231Z,102346.31
2022-10-11T11:59:24.623Z,102346.31
2022-10-11T12:01:53.806Z,102348.88
2022-10-11T12:04:26.864Z,102345.28
2022-10-11T12:07:16.048Z,102333.53
2022-10-11T12:09:44.828Z,102339.00
2022-10-11T12:12:30.017Z,102335.41
2022-10-11T12:15:19.801Z,102335.41
2022-10-11T12:17:58.433Z,102335.41
2022-10-11T12:20:26.251Z,102344.44
2022-10-11T12:22:58.446Z,102343.59
2022-10-11T12:25:28.619Z,102336.25
2022-10-11T12:27:59.815Z,102338.13
2022-10-11T12:30:44.649Z,102344.44
2022-10-11T12:33:18.879Z,102349.03
2022-10-11T12:35:54.433Z,102337.28
2022-10-11T12:38:23.898Z,102346.31
2022-10-11T12:40:54.807Z,102350.91
2022-10-11T12:43:26.273Z,102347.34
2022-10-11T12:45:52.670Z,102348.19
2022-10-11T12:48:37.220Z,102350.06
2022-10-11T12:51:25.601Z,102342.72
2022-10-11T12:54:21.505Z,102339.16
2022-10-11T12:56:47.383Z,102348.03
2022-10-11T12:59:19.111Z,102347.16
2022-10-11T13:01:51.286Z,102344.44
2022-10-11T13:04:20.560Z,102335.41
2022-10-11T13:06:53.490Z,102333.69
2022-10-11T13:09:29.097Z,102331.81
2022-10-11T13:11:59.105Z,102338.13
2022-10-11T13:14:27.287Z,102341.72
2022-10-11T13:17:00.054Z,102340.84
2022-10-11T13:19:27.397Z,102337.28
2022-10-11T13:21:55.433Z,102343.75
2022-10-11T13:24:23.102Z,102342.88
2022-10-11T13:26:50.723Z,102344.75
2022-10-11T13:29:19.174Z,102351.94
2022-10-11T13:31:47.352Z,102347.34
2022-10-11T13:34:14.280Z,102353.66
2022-10-11T13:36:40.820Z,102357.38
2022-10-11T13:39:07.910Z,102348.19
2022-10-11T13:41:35.269Z,102354.66
2022-10-11T13:44:02.806Z,102352.06
2022-10-11T13:46:30.655Z,102346.63
2022-10-11T13:48:58.372Z,102344.75
2022-10-11T13:51:30.210Z,102347.47
2022-10-11T13:53:58.558Z,102344.91
2022-10-11T13:56:25.432Z,102342.19
2022-10-11T13:58:52.973Z,102342.19
2022-10-11T14:01:22.417Z,102332.97
2022-10-11T14:03:53.644Z,102338.59
2022-10-11T14:06:20.174Z,102332.28
2022-10-11T14:08:48.504Z,102335.00
2022-10-11T14:11:15.181Z,102335.88
2022-10-11T14:13:45.778Z,102338.59
2022-10-11T14:16:13.735Z,102343.19
2022-10-11T14:18:44.921Z,102340.47
2022-10-11T14:21:37.534Z,102333.13
2022-10-11T14:24:06.166Z,102329.56
2022-10-11T14:26:37.670Z,102344.06
2022-10-11T14:29:09.061Z,102343.19
2022-10-11T14:31:40.615Z,102343.28
2022-10-11T14:34:08.938Z,102342.34
2022-10-11T14:36:35.343Z,102338.75
2022-10-11T14:39:01.802Z,102337.75
2022-10-11T14:41:28.243Z,102340.72
2022-10-11T14:43:56.412Z,102349.78
2022-10-11T14:46:24.410Z,102345.16
2022-10-11T14:48:55.579Z,102343.28
2022-10-11T14:51:24.748Z,102348.75
2022-10-11T14:53:51.223Z,102342.44
2022-10-11T14:56:21.260Z,102346.94
2022-10-11T14:58:48.457Z,102348.75
2022-10-11T15:01:16.223Z,102353.34
2022-10-11T15:03:42.781Z,102350.78
2022-10-11T15:06:18.360Z,102354.19
2022-10-11T15:08:44.815Z,102352.50
2022-10-11T15:11:12.030Z,102352.50
2022-10-11T15:13:38.413Z,102354.38
2022-10-11T15:16:05.510Z,102354.38
2022-10-11T15:18:32.114Z,102356.06
2022-10-11T15:20:58.568Z,102356.25
2022-10-11T15:23:24.942Z,102348.06
2022-10-11T15:25:51.296Z,102353.34
2022-10-11T15:28:25.072Z,102355.22
2022-10-11T15:30:51.586Z,102358.13
2022-10-11T15:33:17.959Z,102355.38
2022-10-11T15:35:44.320Z,102353.50
2022-10-11T15:38:28.851Z,102350.78
2022-10-11T15:40:55.286Z,102352.66
2022-10-11T15:43:24.755Z,102354.38
2022-10-11T15:45:51.837Z,102360.00
2022-10-11T15:48:21.876Z,102359.81
2022-10-11T15:50:49.661Z,102358.13
2022-10-11T15:53:17.624Z,102359.13
2022-10-11T15:55:45.596Z,102366.28
2022-10-11T15:58:25.083Z,102363.56
2022-10-11T16:00:54.079Z,102363.56
2022-10-11T16:03:21.504Z,102367.31
2022-10-11T16:05:47.996Z,102368.16
2022-10-11T16:08:14.539Z,102370.91
2022-10-11T16:10:41.211Z,102371.75
2022-10-11T16:13:08.443Z,102377.19
2022-10-11T16:15:35.445Z,102375.50
2022-10-11T16:18:02.365Z,102378.22
2022-10-11T16:20:28.764Z,102372.78
2022-10-11T16:22:55.572Z,102375.50
2022-10-11T16:25:22.417Z,102374.59
2022-10-11T16:27:48.946Z,102383.69
2022-10-11T16:30:16.300Z,102374.59
2022-10-11T16:32:44.373Z,102374.59
2022-10-11T16:35:11.942Z,102375.50
2022-10-11T16:37:38.548Z,102379.06
2022-10-11T16:40:05.860Z,102373.75
2022-10-11T16:42:32.462Z,102379.38
2022-10-11T16:44:58.857Z,102375.63
2022-10-11T16:47:25.335Z,102383.81
2022-10-11T16:49:51.671Z,102386.53
2022-10-11T16:52:18.030Z,102389.41
2022-10-11T16:54:45.367Z,102386.53
2022-10-11T16:57:12.679Z,102395.72
2022-10-11T16:59:42.251Z,102390.13
2022-10-11T17:02:13.956Z,102398.28
2022-10-11T17:04:40.450Z,102392.84
2022-10-11T17:07:12.268Z,102398.16
2022-10-11T17:09:43.759Z,102395.56
2022-10-11T17:12:12.806Z,102397.44
2022-10-11T17:14:39.877Z,102401.88
2022-10-11T17:17:07.541Z,102399.31
2022-10-11T17:19:33.996Z,102395.56
2022-10-11T17:22:00.611Z,102400.16
2022-10-11T17:24:27.052Z,102398.47
2022-10-11T17:26:54.086Z,102402.91
2022-10-11T17:29:21.957Z,102402.91
2022-10-11T17:31:49.454Z,102397.44
2022-10-11T17:34:16.888Z,102408.34
2022-10-11T17:36:43.500Z,102413.81
2022-10-11T17:39:11.820Z,102411.94
2022-10-11T17:41:38.164Z,102413.09
2022-10-11T17:44:05.057Z,102416.69
2022-10-11T17:46:34.602Z,102415.84
2022-10-11T17:49:02.155Z,102417.53
2022-10-11T17:51:28.506Z,102417.53
2022-10-11T17:53:54.848Z,102414.81
2022-10-11T17:56:27.828Z,102412.94
2022-10-11T17:58:56.091Z,102414.81
2022-10-11T18:01:23.946Z,102419.25
2022-10-11T18:03:51.514Z,102417.53
2022-10-11T18:06:17.874Z,102423.00
2022-10-11T18:08:44.262Z,102416.69
2022-10-11T18:11:15.237Z,102415.69
2022-10-11T18:13:45.955Z,102422.16
2022-10-11T18:16:13.445Z,102423.16
2022-10-11T18:18:39.820Z,102417.72
2022-10-11T18:21:06.181Z,102422.16
2022-10-11T18:23:32.766Z,102427.72
2022-10-11T18:25:59.163Z,102417.72
2022-10-11T18:28:25.693Z,102424.88
2022-10-11T18:30:53.184Z,102425.88
2022-10-11T18:33:19.576Z,102425.88
2022-10-11T18:35:46.005Z,102430.47
2022-10-11T18:38:12.374Z,102428.63
2022-10-11T18:40:43.417Z,102423.16
2022-10-11T18:43:12.622Z,102421.28
2022-10-11T18:45:38.997Z,102420.44
2022-10-11T18:48:05.432Z,102423.16
2022-10-11T18:50:34.927Z,102421.28
2022-10-11T18:53:01.795Z,102416.69
2022-10-11T18:55:28.237Z,102425.88
2022-10-11T18:57:54.643Z,102419.56
2022-10-11T19:00:39.683Z,102433.19
2022-10-11T19:03:07.381Z,102412.25
2022-10-11T19:05:33.785Z,102414.97
2022-10-11T19:08:00.169Z,102413.97
2022-10-11T19:10:26.520Z,102420.44
2022-10-11T19:12:52.911Z,102414.97
2022-10-11T19:15:19.288Z,102427.72
2022-10-11T19:17:45.618Z,102415.97
2022-10-11T19:20:12.732Z,102411.53
2022-10-11T19:22:39.083Z,102410.50
2022-10-11T19:25:05.683Z,102411.53
2022-10-11T19:27:32.080Z,102414.09
2022-10-11T19:29:58.492Z,102411.53
2022-10-11T19:32:24.878Z,102404.22
2022-10-11T19:34:51.314Z,102411.53
2022-10-11T19:37:18.102Z,102412.38
2022-10-11T19:39:44.557Z,102420.56
2022-10-11T19:42:10.896Z,102412.53
2022-10-11T19:44:39.790Z,102416.13
2022-10-11T19:47:06.400Z,102420.56
2022-10-11T19:49:33.758Z,102425.16
2022-10-11T19:52:01.246Z,102422.44
2022-10-11T19:54:27.817Z,102432.50
2022-10-11T19:56:54.242Z,102427.03
2022-10-11T19:59:20.663Z,102429.75
2022-10-11T20:01:52.365Z,102424.31
2022-10-11T20:04:47.156Z,102429.75
2022-10-11T20:07:05.818Z,102427.88
2022-10-11T20:09:32.218Z,102436.06
2022-10-11T20:11:58.737Z,102434.19
2022-10-11T20:14:25.210Z,102425.31
2022-10-11T20:16:51.702Z,102427.88
2022-10-11T20:19:18.484Z,102415.28
2022-10-11T20:21:45.230Z,102425.16
2022-10-11T20:24:11.844Z,102427.88
2022-10-11T20:26:39.104Z,102421.59
2022-10-11T20:29:06.270Z,102425.16
2022-10-11T20:31:33.483Z,102428.91
2022-10-11T20:34:01.937Z,102428.06
2022-10-11T20:36:30.016Z,102430.78
2022-10-11T20:38:57.035Z,102419.88
2022-10-11T20:41:25.068Z,102430.78
2022-10-11T20:43:53.486Z,102432.66
2022-10-11T20:46:20.889Z,102425.31
2022-10-11T20:48:51.441Z,102430.78
2022-10-11T20:51:18.463Z,102429.94
2022-10-11T20:53:45.275Z,102441.69
2022-10-11T20:56:12.302Z,102438.09
2022-10-11T20:58:39.322Z,102440.84
2022-10-11T21:01:12.709Z,102435.38
2022-10-11T21:03:39.578Z,102428.19
2022-10-11T21:06:06.112Z,102436.38
2022-10-11T21:08:33.209Z,102436.38
2022-10-11T21:10:59.672Z,102435.50
2022-10-11T21:13:26.002Z,102445.41
2022-10-11T21:15:52.545Z,102444.41
2022-10-11T21:18:19.159Z,102432.78
2022-10-11T21:20:45.672Z,102439.09
2022-10-11T21:23:13.789Z,102440.84
2022-10-11T21:25:40.684Z,102435.50
2022-10-11T21:28:07.281Z,102447.13
2022-10-11T21:30:34.088Z,102441.81
2022-10-11T21:33:00.440Z,102446.41
2022-10-11T21:35:28.034Z,102448.28
2022-10-11T21:37:54.993Z,102451.00
2022-10-11T21:40:21.490Z,102449.13
2022-10-11T21:42:47.868Z,102459.03
2022-10-11T21:45:14.384Z,102457.31
2022-10-11T21:47:42.885Z,102460.03
2022-10-11T21:50:09.545Z,102450.00
2022-10-11T21:52:36.187Z,102446.41
2022-10-11T21:55:02.818Z,102446.41
2022-10-11T21:57:29.238Z,102445.56
2022-10-11T21:59:55.644Z,102445.56
2022-10-11T22:02:22.028Z,102448.28
2022-10-11T22:04:48.364Z,102450.16
2022-10-11T22:07:14.808Z,102442.84
2022-10-11T22:09:41.165Z,102451.00
2022-10-11T22:12:07.635Z,102450.16
2022-10-11T22:14:33.965Z,102441.97
2022-10-11T22:17:00.306Z,102451.00
2022-10-11T22:19:26.765Z,102449.13
2022-10-11T22:21:53.160Z,102447.44
2022-10-11T22:24:19.564Z,102455.44
2022-10-11T22:26:45.922Z,102450.00
2022-10-11T22:29:12.259Z,102449.13
2022-10-11T22:31:38.692Z,102443.69
2022-10-11T22:34:05.053Z,102441.13
2022-10-11T22:36:31.469Z,102445.56
2022-10-11T22:38:58.588Z,102453.75
2022-10-11T22:41:24.990Z,102446.56
2022-10-11T22:43:51.803Z,102450.16
2022-10-11T22:46:18.405Z,102450.16
2022-10-11T22:48:44.770Z,102441.97
2022-10-11T22:51:11.098Z,102440.25
2022-10-11T22:53:37.447Z,102441.97
2022-10-11T22:56:03.907Z,102451.88
2022-10-11T22:58:30.288Z,102435.66
2022-10-11T23:00:56.720Z,102435.66
2022-10-11T23:03:23.184Z,102433.78
2022-10-11T23:05:56.532Z,102443.84
2022-10-11T23:08:22.948Z,102436.53
2022-10-11T23:10:49.402Z,102437.53
2022-10-11T23:13:15.943Z,102432.94
2022-10-11T23:15:42.371Z,102441.13
2022-10-11T23:18:08.749Z,102439.25
2022-10-11T23:20:35.095Z,102436.69
2022-10-11T23:23:01.485Z,102438.41
2022-10-11T23:25:27.879Z,102434.81
2022-10-11T23:27:54.229Z,102440.25
2022-10-11T23:30:20.664Z,102442.13
2022-10-11T23:32:46.989Z,102443.00
2022-10-11T23:35:13.352Z,102435.66
2022-10-11T23:37:39.969Z,102443.84
2022-10-11T23:40:06.837Z,102437.53
2022-10-11T23:42:33.219Z,102434.81
2022-10-11T23:44:59.602Z,102436.69
2022-10-11T23:47:25.966Z,102435.66
2022-10-11T23:49:52.696Z,102436.69
2022-10-11T23:52:19.078Z,102442.13
2022-10-11T23:54:45.537Z,102443.97
2022-10-11T23:57:12.431Z,102442.13
2022-10-11T23:59:38.748Z,102438.53
